Time;durP1;ratioP1;P1;durP2;ratioP2;P2;SDS_P1;SDS_P2;PMS_P1;PMS_P2;Temp;Humidity;BMP_temperature;BMP_pressure;BME280_temperature;BME280_humidity;BME280_pressure;Samples;Min_cycle;Max_cycle;Signal;HPM_P1;HPM_P2
2022/11/02 00:02:08;;;;;;;7.00;1.40;;;;;;;;;;5071905;28;20085;-71
2022/11/02 00:04:35;;;;;;;3.38;1.52;;;;;;;;;;5070816;28;20020;-70
2022/11/02 00:07:01;;;;;;;3.70;1.40;;;;;;;;;;5070110;28;20467;-71
2022/11/02 00:09:27;;;;;;;6.03;1.40;;;;;;;;;;5070934;28;20020;-71
2022/11/02 00:11:54;;;;;;;4.00;1.33;;;;;;;;;;5071751;28;20020;-71
2022/11/02 00:14:20;;;;;;;4.78;1.60;;;;;;;;;;5071694;28;20044;-70
2022/11/02 00:16:46;;;;;;;5.63;1.63;;;;;;;;;;5071591;28;20404;-71
2022/11/02 00:19:13;;;;;;;12.45;1.88;;;;;;;;;;5071548;28;20024;-71
2022/11/02 00:21:40;;;;;;;6.40;1.70;;;;;;;;;;5071264;28;20578;-71
2022/11/02 00:24:06;;;;;;;5.45;1.80;;;;;;;;;;5071822;28;20029;-71
2022/11/02 00:26:34;;;;;;;5.43;1.67;;;;;;;;;;5071839;28;20032;-71
2022/11/02 00:29:00;;;;;;;5.18;1.50;;;;;;;;;;5071466;28;20028;-71
2022/11/02 00:31:26;;;;;;;7.30;1.50;;;;;;;;;;5071614;28;20378;-70
2022/11/02 00:33:52;;;;;;;4.90;1.73;;;;;;;;;;5071817;28;20029;-71
2022/11/02 00:36:19;;;;;;;8.55;2.00;;;;;;;;;;5071050;28;20025;-70
2022/11/02 00:38:45;;;;;;;8.38;1.90;;;;;;;;;;5071448;28;20489;-71
2022/11/02 00:41:12;;;;;;;8.50;1.67;;;;;;;;;;5071681;28;20031;-70
2022/11/02 00:43:38;;;;;;;5.50;1.77;;;;;;;;;;5071264;28;20182;-71
2022/11/02 00:46:04;;;;;;;8.15;1.73;;;;;;;;;;5071679;28;20027;-70
2022/11/02 00:48:31;;;;;;;5.50;2.00;;;;;;;;;;5071628;28;20493;-70
2022/11/02 00:50:57;;;;;;;6.82;1.75;;;;;;;;;;5074783;28;20024;-71
2022/11/02 00:53:23;;;;;;;3.38;1.58;;;;;;;;;;5075031;28;20442;-71
2022/11/02 00:55:50;;;;;;;6.82;1.60;;;;;;;;;;5075026;28;20033;-70
2022/11/02 00:58:16;;;;;;;6.00;1.65;;;;;;;;;;5074622;28;20040;-70
2022/11/02 01:00:42;;;;;;;7.50;1.95;;;;;;;;;;5074851;28;20020;-71
2022/11/02 01:03:09;;;;;;;8.20;1.67;;;;;;;;;;5074753;28;20032;-71
2022/11/02 01:05:36;;;;;;;7.18;1.90;;;;;;;;;;5074415;28;20020;-71
2022/11/02 01:08:03;;;;;;;7.43;1.60;;;;;;;;;;5075041;28;20024;-71
2022/11/02 01:10:29;;;;;;;5.97;1.90;;;;;;;;;;5074504;28;20040;-70
2022/11/02 01:12:56;;;;;;;4.10;1.40;;;;;;;;;;5075183;28;20025;-71
2022/11/02 01:15:22;;;;;;;5.97;1.90;;;;;;;;;;5074561;28;20051;-70
2022/11/02 01:17:48;;;;;;;4.13;1.48;;;;;;;;;;5074001;28;20048;-70
2022/11/02 01:20:14;;;;;;;4.28;2.20;;;;;;;;;;5074283;28;20020;-71
2022/11/02 01:22:41;;;;;;;7.80;1.75;;;;;;;;;;5074498;28;20035;-70
2022/11/02 01:25:08;;;;;;;2.63;1.45;;;;;;;;;;5074338;28;20408;-70
2022/11/02 01:27:34;;;;;;;5.70;1.92;;;;;;;;;;5074252;28;20032;-70
2022/11/02 01:30:00;;;;;;;6.65;1.88;;;;;;;;;;5074232;28;20016;-70
2022/11/02 01:32:29;;;;;;;5.22;1.48;;;;;;;;;;5073953;28;20017;-71
2022/11/02 01:34:55;;;;;;;5.85;1.70;;;;;;;;;;5074182;28;20023;-71
2022/11/02 01:37:22;;;;;;;5.38;1.80;;;;;;;;;;5074243;28;20031;-70
2022/11/02 01:39:48;;;;;;;5.72;2.10;;;;;;;;;;5074184;28;20516;-71
2022/11/02 01:42:18;;;;;;;3.33;1.63;;;;;;;;;;5074371;28;20025;-72
2022/11/02 01:44:45;;;;;;;2.05;1.30;;;;;;;;;;5073065;28;20020;-70
2022/11/02 01:47:13;;;;;;;5.97;1.80;;;;;;;;;;5072633;28;20051;-70
2022/11/02 01:49:42;;;;;;;4.18;1.70;;;;;;;;;;5073904;28;20031;-71
2022/11/02 01:52:13;;;;;;;4.78;1.65;;;;;;;;;;5073834;28;20032;-70
2022/11/02 01:54:41;;;;;;;6.30;1.60;;;;;;;;;;5073859;28;20435;-71
2022/11/02 01:57:09;;;;;;;4.28;1.55;;;;;;;;;;5073493;28;20434;-70
2022/11/02 01:59:42;;;;;;;4.50;1.73;;;;;;;;;;5073644;28;20017;-71
2022/11/02 02:02:10;;;;;;;5.97;1.75;;;;;;;;;;5072653;28;20040;-71
2022/11/02 02:04:37;;;;;;;4.05;1.40;;;;;;;;;;5074189;28;20081;-72
2022/11/02 02:07:04;;;;;;;5.10;1.80;;;;;;;;;;5073781;28;20029;-73
2022/11/02 02:09:30;;;;;;;6.88;1.83;;;;;;;;;;5073499;28;20019;-72
2022/11/02 02:11:56;;;;;;;5.10;1.80;;;;;;;;;;5073826;28;20036;-72
2022/11/02 02:14:23;;;;;;;8.13;1.73;;;;;;;;;;5073364;28;20044;-71
2022/11/02 02:17:08;;;;;;;4.80;1.60;;;;;;;;;;5073068;28;20035;-71
2022/11/02 02:19:47;;;;;;;8.45;1.92;;;;;;;;;;5073158;28;20040;-72
2022/11/02 02:22:29;;;;;;;4.85;1.90;;;;;;;;;;5073294;28;20027;-73
2022/11/02 02:24:56;;;;;;;4.60;1.67;;;;;;;;;;5073209;28;20051;-72
2022/11/02 02:27:41;;;;;;;5.85;1.80;;;;;;;;;;5073488;28;20031;-72
2022/11/02 02:30:08;;;;;;;7.07;2.03;;;;;;;;;;5073046;28;20024;-72
2022/11/02 02:32:49;;;;;;;7.15;2.03;;;;;;;;;;5073028;28;20181;-72
2022/11/02 02:35:34;;;;;;;9.85;2.10;;;;;;;;;;5072909;28;20027;-72
2022/11/02 02:38:14;;;;;;;6.15;2.13;;;;;;;;;;5072611;28;20029;-72
2022/11/02 02:40:42;;;;;;;8.75;1.90;;;;;;;;;;5072952;28;20400;-71
2022/11/02 02:43:15;;;;;;;3.60;1.60;;;;;;;;;;5072752;28;20473;-71
2022/11/02 02:45:43;;;;;;;8.45;1.67;;;;;;;;;;5072399;28;20023;-72
2022/11/02 02:48:15;;;;;;;7.28;2.05;;;;;;;;;;5072728;28;20031;-72
2022/11/02 02:50:54;;;;;;;6.57;1.73;;;;;;;;;;5072833;28;20017;-71
2022/11/02 02:53:22;;;;;;;7.47;2.20;;;;;;;;;;5072751;28;20024;-71
2022/11/02 02:55:50;;;;;;;10.20;2.00;;;;;;;;;;5072785;28;20024;-71
2022/11/02 02:58:19;;;;;;;4.78;1.38;;;;;;;;;;5072694;28;20101;-71
2022/11/02 03:00:45;;;;;;;6.43;1.88;;;;;;;;;;5072160;28;20477;-72
2022/11/02 03:03:16;;;;;;;4.47;1.73;;;;;;;;;;5072489;28;20043;-71
2022/11/02 03:05:43;;;;;;;;;;;;;;;;;;5072947;28;20028;-72
2022/11/02 03:08:15;;;;;;;5.18;1.83;;;;;;;;;;5072363;28;19904;-72
2022/11/02 03:10:47;;;;;;;4.65;1.65;;;;;;;;;;5072494;28;20482;-72
2022/11/02 03:13:17;;;;;;;3.78;2.00;;;;;;;;;;5071265;28;20039;-72
2022/11/02 03:15:47;;;;;;;8.38;1.75;;;;;;;;;;5071979;28;20021;-71
2022/11/02 03:18:19;;;;;;;6.85;1.70;;;;;;;;;;5071934;28;20051;-72
2022/11/02 03:20:58;;;;;;;5.80;1.90;;;;;;;;;;5072430;28;20020;-72
2022/11/02 03:23:27;;;;;;;5.00;1.88;;;;;;;;;;5072508;28;20024;-71
2022/11/02 03:25:53;;;;;;;7.22;1.63;;;;;;;;;;5072187;28;20508;-71
2022/11/02 03:28:38;;;;;;;6.50;2.00;;;;;;;;;;5071951;28;20032;-71
2022/11/02 03:31:24;;;;;;;6.25;1.80;;;;;;;;;;5072033;28;20023;-72
2022/11/02 03:34:01;;;;;;;6.70;2.05;;;;;;;;;;5072356;28;20031;-71
2022/11/02 03:36:32;;;;;;;5.63;2.10;;;;;;;;;;5071816;28;20028;-72
2022/11/02 03:39:04;;;;;;;6.90;2.08;;;;;;;;;;5071993;28;20024;-72
2022/11/02 03:41:31;;;;;;;6.30;2.00;;;;;;;;;;5071827;28;20025;-71
2022/11/02 03:44:03;;;;;;;8.23;2.10;;;;;;;;;;5071822;28;20034;-72
2022/11/02 03:46:32;;;;;;;4.22;1.88;;;;;;;;;;5072060;28;20027;-71
2022/11/02 03:49:00;;;;;;;5.75;2.08;;;;;;;;;;5072079;28;20020;-71
2022/11/02 03:51:28;;;;;;;7.50;2.30;;;;;;;;;;5071942;28;20386;-71
2022/11/02 03:54:13;;;;;;;4.43;1.40;;;;;;;;;;5071921;28;20040;-71
2022/11/02 03:56:41;;;;;;;7.50;2.10;;;;;;;;;;5072060;28;20037;-71
2022/11/02 03:59:08;;;;;;;9.07;2.22;;;;;;;;;;5071446;28;20432;-71
2022/11/02 04:01:38;;;;;;;6.88;1.98;;;;;;;;;;5071852;28;20047;-71
2022/11/02 04:04:05;;;;;;;5.00;1.42;;;;;;;;;;5071787;28;20020;-71
2022/11/02 04:06:31;;;;;;;7.95;2.17;;;;;;;;;;5071693;28;20024;-71
2022/11/02 04:08:58;;;;;;;4.10;1.83;;;;;;;;;;5071658;28;20021;-71
2022/11/02 04:19:40;;;;;;;4.82;2.42;;;;;;;;;;5071498;28;20485;-71
2022/11/02 04:27:36;;;;;;;7.10;2.03;;;;;;;;;;5074993;28;20025;-70
2022/11/02 04:30:03;;;;;;;6.32;1.80;;;;;;;;;;5075565;28;20031;-70
2022/11/02 04:35:15;;;;;;;4.47;2.05;;;;;;;;;;5074929;28;20069;-71
2022/11/02 04:40:27;;;;;;;6.40;2.03;;;;;;;;;;5075219;28;20036;-70
2022/11/02 04:42:54;;;;;;;5.93;2.00;;;;;;;;;;5074697;28;20039;-70
2022/11/02 04:45:20;;;;;;;6.43;1.73;;;;;;;;;;5075059;28;20029;-70
2022/11/02 04:47:46;;;;;;;5.35;2.00;;;;;;;;;;5075010;28;20020;-70
2022/11/02 04:50:12;;;;;;;5.43;1.85;;;;;;;;;;5075261;28;20029;-70
2022/11/02 04:52:39;;;;;;;4.22;2.10;;;;;;;;;;5075029;28;20507;-70
2022/11/02 04:55:05;;;;;;;4.05;1.75;;;;;;;;;;5075166;28;20028;-70
2022/11/02 04:57:32;;;;;;;6.65;2.13;;;;;;;;;;5074526;28;20040;-70
2022/11/02 04:59:58;;;;;;;4.80;1.58;;;;;;;;;;5074901;28;20137;-71
2022/11/02 05:02:24;;;;;;;5.32;1.88;;;;;;;;;;5074791;28;20027;-71
2022/11/02 05:04:51;;;;;;;6.15;1.95;;;;;;;;;;5074780;28;20027;-71
2022/11/02 05:07:17;;;;;;;7.50;1.92;;;;;;;;;;5074943;28;20031;-72
2022/11/02 05:09:43;;;;;;;5.43;1.80;;;;;;;;;;5075066;28;20030;-70
2022/11/02 05:12:10;;;;;;;6.70;2.17;;;;;;;;;;5074626;28;20012;-70
2022/11/02 05:14:36;;;;;;;4.75;2.10;;;;;;;;;;5074299;28;20045;-71
2022/11/02 05:17:02;;;;;;;6.57;1.98;;;;;;;;;;5074605;28;20038;-70
2022/11/02 05:19:29;;;;;;;5.38;1.90;;;;;;;;;;5074356;28;20025;-71
2022/11/02 05:21:55;;;;;;;6.38;1.95;;;;;;;;;;5074888;28;20028;-70
2022/11/02 05:24:21;;;;;;;5.65;2.30;;;;;;;;;;5074076;28;20502;-71
2022/11/02 05:26:48;;;;;;;6.57;2.30;;;;;;;;;;5074436;28;20477;-71
2022/11/02 05:29:14;;;;;;;7.80;2.03;;;;;;;;;;5074479;28;20032;-70
2022/11/02 05:31:40;;;;;;;7.82;1.90;;;;;;;;;;5074329;28;20035;-71
2022/11/02 05:34:07;;;;;;;4.57;2.05;;;;;;;;;;5074676;28;20016;-70
2022/11/02 05:36:33;;;;;;;5.63;2.28;;;;;;;;;;5072990;28;20500;-71
2022/11/02 05:38:59;;;;;;;5.13;1.88;;;;;;;;;;5073973;28;20081;-71
2022/11/02 05:41:26;;;;;;;6.97;2.00;;;;;;;;;;5074406;28;20020;-71
2022/11/02 05:43:52;;;;;;;7.72;2.20;;;;;;;;;;5073978;28;20029;-71
2022/11/02 05:46:18;;;;;;;7.78;2.30;;;;;;;;;;5073920;28;20473;-70
2022/11/02 05:48:45;;;;;;;5.13;1.70;;;;;;;;;;5074119;28;20040;-71
2022/11/02 05:51:11;;;;;;;4.72;2.17;;;;;;;;;;5074173;28;20024;-70
2022/11/02 05:53:37;;;;;;;6.50;2.58;;;;;;;;;;5072420;28;20020;-71
2022/11/02 05:56:05;;;;;;;5.88;2.13;;;;;;;;;;5073869;28;20025;-70
2022/11/02 05:58:31;;;;;;;5.05;2.28;;;;;;;;;;5073733;28;20075;-70
2022/11/02 06:00:59;;;;;;;7.60;2.45;;;;;;;;;;5073818;28;20458;-70
2022/11/02 06:03:25;;;;;;;6.35;1.90;;;;;;;;;;5073963;28;20033;-70
2022/11/02 06:06:02;;;;;;;5.55;1.90;;;;;;;;;;5073642;28;20412;-70
2022/11/02 06:08:30;;;;;;;4.22;2.00;;;;;;;;;;5073180;28;20039;-70
2022/11/02 06:10:57;;;;;;;5.70;2.22;;;;;;;;;;5073749;28;20035;-71
2022/11/02 06:13:23;;;;;;;4.47;2.25;;;;;;;;;;5073400;28;20410;-71
2022/11/02 06:15:49;;;;;;;4.97;2.53;;;;;;;;;;5073372;28;20101;-71
2022/11/02 06:18:16;;;;;;;4.85;2.15;;;;;;;;;;5072958;28;20028;-71
2022/11/02 06:20:42;;;;;;;6.70;2.38;;;;;;;;;;5073769;28;20046;-71
2022/11/02 06:23:08;;;;;;;6.00;2.42;;;;;;;;;;5073022;28;20039;-71
2022/11/02 06:25:35;;;;;;;6.70;2.60;;;;;;;;;;5072240;28;20428;-71
2022/11/02 06:28:01;;;;;;;7.20;2.60;;;;;;;;;;5073318;28;20311;-71
2022/11/02 06:30:27;;;;;;;8.20;2.08;;;;;;;;;;5073498;28;20043;-71
2022/11/02 06:32:54;;;;;;;6.63;2.20;;;;;;;;;;5073144;28;20025;-71
2022/11/02 06:35:21;;;;;;;8.77;2.28;;;;;;;;;;5073315;28;20374;-70
2022/11/02 06:37:47;;;;;;;4.85;1.77;;;;;;;;;;5071393;28;20432;-71
2022/11/02 06:40:14;;;;;;;6.35;1.88;;;;;;;;;;5072923;28;20029;-71
2022/11/02 06:42:40;;;;;;;7.15;1.80;;;;;;;;;;5073188;28;20431;-71
2022/11/02 06:45:07;;;;;;;6.45;1.83;;;;;;;;;;5073070;28;20023;-71
2022/11/02 06:47:34;;;;;;;6.97;2.05;;;;;;;;;;5072630;28;20020;-70
2022/11/02 06:50:01;;;;;;;6.75;2.45;;;;;;;;;;5072884;28;20025;-70
2022/11/02 06:52:28;;;;;;;4.68;1.92;;;;;;;;;;5072453;28;20481;-71
2022/11/02 06:54:54;;;;;;;5.85;1.92;;;;;;;;;;5072751;28;20017;-70
2022/11/02 06:57:21;;;;;;;7.32;1.70;;;;;;;;;;5071403;28;20037;-70
2022/11/02 06:59:47;;;;;;;5.22;1.90;;;;;;;;;;5072977;28;20031;-71
2022/11/02 07:02:13;;;;;;;4.50;2.10;;;;;;;;;;5072749;28;20029;-71
2022/11/02 07:04:40;;;;;;;4.70;1.70;;;;;;;;;;5072518;28;20077;-71
2022/11/02 07:07:06;;;;;;;5.65;1.70;;;;;;;;;;5072083;28;20024;-70
2022/11/02 07:09:32;;;;;;;4.10;1.95;;;;;;;;;;5071391;28;20038;-71
2022/11/02 07:11:59;;;;;;;7.15;1.88;;;;;;;;;;5086104;28;20487;-71
2022/11/02 07:14:25;;;;;;;8.68;1.95;;;;;;;;;;5092404;28;20048;-72
2022/11/02 07:16:51;;;;;;;4.68;1.55;;;;;;;;;;5092000;28;20035;-71
2022/11/02 07:19:18;;;;;;;5.18;1.60;;;;;;;;;;5082184;28;20516;-71
2022/11/02 07:21:44;;;;;;;8.73;1.67;;;;;;;;;;5070165;28;20036;-71
2022/11/02 07:24:10;;;;;;;3.22;1.52;;;;;;;;;;5072317;28;20025;-72
2022/11/02 07:26:37;;;;;;;2.67;1.58;;;;;;;;;;5071958;28;20077;-71
2022/11/02 07:29:03;;;;;;;9.50;2.60;;;;;;;;;;5086392;28;20028;-71
2022/11/02 07:31:31;;;;;;;5.63;2.40;;;;;;;;;;5078709;28;20025;-71
2022/11/02 07:33:57;;;;;;;6.00;1.95;;;;;;;;;;5070707;28;20046;-72
2022/11/02 07:36:23;;;;;;;7.63;1.90;;;;;;;;;;5069066;28;20025;-72
2022/11/02 07:38:50;;;;;;;10.30;1.80;;;;;;;;;;5070985;28;20097;-72
2022/11/02 07:41:16;;;;;;;4.43;1.40;;;;;;;;;;5070772;28;20473;-72
2022/11/02 07:43:42;;;;;;;4.65;1.70;;;;;;;;;;5072015;28;20028;-72
2022/11/02 07:46:10;;;;;;;8.65;1.48;;;;;;;;;;5068120;28;20465;-72
2022/11/02 07:48:36;;;;;;;7.88;2.03;;;;;;;;;;5071621;28;20425;-71
2022/11/02 07:51:03;;;;;;;5.72;1.33;;;;;;;;;;5071673;28;20028;-72
2022/11/02 07:53:29;;;;;;;9.02;1.70;;;;;;;;;;5071558;28;20020;-72
2022/11/02 07:55:55;;;;;;;11.43;2.08;;;;;;;;;;5072084;28;20017;-72
2022/11/02 07:58:22;;;;;;;33.20;3.13;;;;;;;;;;5072294;28;20028;-72
2022/11/02 08:00:48;;;;;;;28.10;2.10;;;;;;;;;;5076291;28;20020;-72
2022/11/02 08:03:14;;;;;;;21.30;2.33;;;;;;;;;;5076274;28;20021;-73
2022/11/02 08:05:42;;;;;;;19.23;2.20;;;;;;;;;;5074745;28;20031;-72
2022/11/02 08:08:13;;;;;;;5.55;1.33;;;;;;;;;;5076476;28;20479;-72
2022/11/02 08:10:39;;;;;;;;;;;;;;;;;;5076646;28;20035;-72
2022/11/02 08:13:06;;;;;;;7.63;1.77;;;;;;;;;;5076014;28;19915;-72
2022/11/02 08:15:32;;;;;;;6.03;1.45;;;;;;;;;;5075666;28;20420;-72
2022/11/02 08:18:05;;;;;;;4.88;1.50;;;;;;;;;;5075853;28;20080;-72
2022/11/02 08:20:33;;;;;;;8.15;1.30;;;;;;;;;;5075647;28;20028;-72
2022/11/02 08:22:59;;;;;;;9.05;1.23;;;;;;;;;;5074546;28;20032;-72
2022/11/02 08:25:26;;;;;;;15.88;1.65;;;;;;;;;;5075627;28;20073;-72
2022/11/02 08:27:56;;;;;;;11.57;2.00;;;;;;;;;;5075826;28;20024;-71
2022/11/02 08:30:23;;;;;;;7.10;2.03;;;;;;;;;;5075641;28;20487;-72
2022/11/02 08:32:49;;;;;;;5.22;1.52;;;;;;;;;;5075561;28;20035;-72
2022/11/02 08:35:15;;;;;;;4.47;1.52;;;;;;;;;;5074541;28;20016;-72
2022/11/02 08:37:42;;;;;;;4.90;1.50;;;;;;;;;;5075458;28;20036;-72
2022/11/02 08:40:08;;;;;;;6.47;1.63;;;;;;;;;;5075622;28;20029;-72
2022/11/02 08:42:37;;;;;;;2.70;1.30;;;;;;;;;;5075465;28;20027;-72
2022/11/02 08:45:07;;;;;;;4.00;1.60;;;;;;;;;;5075267;28;20024;-72
2022/11/02 08:47:33;;;;;;;3.92;1.77;;;;;;;;;;5074887;28;20033;-71
2022/11/02 08:49:59;;;;;;;4.60;1.60;;;;;;;;;;5075552;28;20016;-70
2022/11/02 08:52:25;;;;;;;7.63;1.85;;;;;;;;;;5075299;28;20017;-70
2022/11/02 08:54:52;;;;;;;9.93;1.80;;;;;;;;;;5075595;28;20066;-70
2022/11/02 08:57:18;;;;;;;3.88;1.50;;;;;;;;;;5075094;28;20036;-70
2022/11/02 08:59:45;;;;;;;3.55;1.67;;;;;;;;;;5074051;28;20017;-70
2022/11/02 09:02:11;;;;;;;3.67;1.50;;;;;;;;;;5074698;28;20029;-70
2022/11/02 09:04:37;;;;;;;5.80;1.55;;;;;;;;;;5074900;28;20021;-70
2022/11/02 09:07:03;;;;;;;4.55;1.42;;;;;;;;;;5073286;28;20031;-72
2022/11/02 09:09:30;;;;;;;3.53;1.50;;;;;;;;;;5090135;28;20024;-72
2022/11/02 09:11:56;;;;;;;5.65;1.90;;;;;;;;;;5070759;28;20029;-71
2022/11/02 09:14:23;;;;;;;4.55;1.83;;;;;;;;;;5074214;28;20074;-72
2022/11/02 09:16:49;;;;;;;3.03;1.50;;;;;;;;;;5074096;28;20500;-72
2022/11/02 09:19:15;;;;;;;5.28;1.67;;;;;;;;;;5074471;28;20032;-72
2022/11/02 09:21:43;;;;;;;4.10;1.73;;;;;;;;;;5073532;28;20051;-72
2022/11/02 09:24:09;;;;;;;4.93;1.40;;;;;;;;;;5073216;28;20033;-72
2022/11/02 09:26:35;;;;;;;5.93;1.65;;;;;;;;;;5073179;28;20035;-73
2022/11/02 09:29:02;;;;;;;3.70;1.63;;;;;;;;;;5073170;28;20093;-72
2022/11/02 09:31:29;;;;;;;2.53;1.52;;;;;;;;;;5072621;28;20028;-73
2022/11/02 09:33:55;;;;;;;3.90;1.50;;;;;;;;;;5074482;28;20029;-71
2022/11/02 09:36:21;;;;;;;2.63;1.55;;;;;;;;;;5074056;28;20378;-71
2022/11/02 09:38:48;;;;;;;5.72;1.42;;;;;;;;;;5073862;28;20032;-73
2022/11/02 09:41:17;;;;;;;4.05;1.67;;;;;;;;;;5073955;28;20016;-72
2022/11/02 09:44:05;;;;;;;2.28;1.58;;;;;;;;;;5072626;28;20290;-72
2022/11/02 09:46:35;;;;;;;4.55;1.38;;;;;;;;;;5071236;28;20029;-72
2022/11/02 09:49:12;;;;;;;4.10;1.50;;;;;;;;;;5073714;28;20031;-72
2022/11/02 09:51:40;;;;;;;3.92;1.48;;;;;;;;;;5073794;28;20035;-72
2022/11/02 09:54:18;;;;;;;6.63;1.65;;;;;;;;;;5073998;28;20029;-72
2022/11/02 09:56:45;;;;;;;4.35;1.52;;;;;;;;;;5073611;28;20500;-72
2022/11/02 09:59:16;;;;;;;3.63;1.50;;;;;;;;;;5073773;28;20034;-72
2022/11/02 10:01:43;;;;;;;6.57;1.60;;;;;;;;;;5073474;28;20037;-72
2022/11/02 10:04:15;;;;;;;3.88;1.42;;;;;;;;;;5073257;28;20094;-70
2022/11/02 10:06:44;;;;;;;3.65;1.63;;;;;;;;;;5073179;28;20028;-72
2022/11/02 10:09:22;;;;;;;6.22;1.85;;;;;;;;;;5073292;28;20030;-71
2022/11/02 10:12:15;;;;;;;9.35;1.67;;;;;;;;;;5072865;28;20032;-71
2022/11/02 10:15:00;;;;;;;3.13;1.30;;;;;;;;;;5071325;28;20040;-72
2022/11/02 10:17:28;;;;;;;3.00;1.48;;;;;;;;;;5073122;28;20481;-72
2022/11/02 10:19:59;;;;;;;7.25;2.10;;;;;;;;;;5071787;28;20032;-71
2022/11/02 10:22:32;;;;;;;4.28;1.90;;;;;;;;;;5070810;28;20025;-72
2022/11/02 10:25:00;;;;;;;7.45;1.90;;;;;;;;;;5073039;28;20016;-72
2022/11/02 10:27:28;;;;;;;5.70;1.73;;;;;;;;;;5073087;28;20031;-72
2022/11/02 10:30:02;;;;;;;3.90;1.27;;;;;;;;;;5073109;28;20021;-72
2022/11/02 10:32:30;;;;;;;3.95;1.33;;;;;;;;;;5072039;28;20024;-72
2022/11/02 10:34:57;;;;;;;5.40;1.70;;;;;;;;;;5072904;28;20025;-72
2022/11/02 10:37:35;;;;;;;3.88;1.60;;;;;;;;;;5072786;28;20032;-73
2022/11/02 10:40:12;;;;;;;4.75;1.83;;;;;;;;;;5073155;28;20025;-72
2022/11/02 10:42:39;;;;;;;4.22;1.40;;;;;;;;;;5073103;28;20016;-72
2022/11/02 10:45:11;;;;;;;4.35;1.58;;;;;;;;;;5072180;28;20027;-72
2022/11/02 10:47:45;;;;;;;5.78;1.83;;;;;;;;;;5072567;28;20033;-72
2022/11/02 10:50:23;;;;;;;6.40;1.75;;;;;;;;;;5072579;28;20029;-72
2022/11/02 10:52:49;;;;;;;6.50;1.50;;;;;;;;;;5072661;28;20408;-72
2022/11/02 10:55:39;;;;;;;4.78;1.50;;;;;;;;;;5072715;28;20051;-72
2022/11/02 10:58:05;;;;;;;5.70;1.75;;;;;;;;;;5072290;28;20042;-73
2022/11/02 11:00:36;;;;;;;5.85;1.40;;;;;;;;;;5072453;28;20025;-72
2022/11/02 11:03:08;;;;;;;5.28;1.73;;;;;;;;;;5072533;28;20024;-72
2022/11/02 11:05:55;;;;;;;6.55;2.28;;;;;;;;;;5070833;28;20042;-72
2022/11/02 11:08:28;;;;;;;5.90;2.60;;;;;;;;;;5071368;28;20427;-72
2022/11/02 11:10:55;;;;;;;6.43;2.35;;;;;;;;;;5072038;28;20400;-72
2022/11/02 11:13:23;;;;;;;6.47;1.95;;;;;;;;;;5071809;28;20027;-72
2022/11/02 11:15:51;;;;;;;6.05;1.70;;;;;;;;;;5072131;28;20516;-72
2022/11/02 11:18:21;;;;;;;4.28;1.50;;;;;;;;;;5071900;28;20525;-72
2022/11/02 11:20:48;;;;;;;;;;;;;;;;;;5072543;28;20028;-72
2022/11/02 11:23:14;;;;;;;4.75;1.50;;;;;;;;;;5072415;28;19908;-72
2022/11/02 11:25:41;;;;;;;7.68;1.55;;;;;;;;;;5072115;28;20489;-71
2022/11/02 11:28:33;;;;;;;5.32;1.63;;;;;;;;;;5071967;28;20028;-73
2022/11/02 11:31:02;;;;;;;6.10;1.70;;;;;;;;;;5069820;28;20056;-72
2022/11/02 11:33:30;;;;;;;3.83;1.10;;;;;;;;;;5068979;28;20426;-72
2022/11/02 11:35:56;;;;;;;2.85;1.20;;;;;;;;;;5069793;28;20400;-72
2022/11/02 11:38:27;;;;;;;3.03;1.20;;;;;;;;;;5069822;28;20043;-72
2022/11/02 11:40:55;;;;;;;2.78;1.10;;;;;;;;;;5069791;28;20044;-73
2022/11/02 11:43:25;;;;;;;3.53;1.40;;;;;;;;;;5069435;28;20028;-72
2022/11/02 11:45:54;;;;;;;1.75;1.20;;;;;;;;;;5069716;28;20050;-72
2022/11/02 11:48:43;;;;;;;4.72;1.20;;;;;;;;;;5069581;28;20548;-72
2022/11/02 11:51:28;;;;;;;1.85;1.20;;;;;;;;;;5062142;28;20049;-71
2022/11/02 11:54:17;;;;;;;3.85;1.30;;;;;;;;;;5070002;28;20031;-72
2022/11/02 11:56:43;;;;;;;3.25;1.55;;;;;;;;;;5069453;28;20028;-72
2022/11/02 11:59:42;;;;;;;3.85;2.30;;;;;;;;;;5069388;28;20040;-72
2022/11/02 12:02:21;;;;;;;5.13;2.20;;;;;;;;;;5009997;28;20038;-72
2022/11/02 12:04:48;;;;;;;2.75;1.33;;;;;;;;;;4993650;28;20052;-72
2022/11/02 12:07:30;;;;;;;3.55;1.52;;;;;;;;;;5004726;28;20046;-72
2022/11/02 12:10:10;;;;;;;4.35;1.80;;;;;;;;;;4990652;28;20034;-72
2022/11/02 12:12:51;;;;;;;2.78;1.27;;;;;;;;;;4990273;28;20038;-72
2022/11/02 12:15:17;;;;;;;6.18;1.35;;;;;;;;;;4990036;28;20719;-72
2022/11/02 12:17:44;;;;;;;2.70;1.25;;;;;;;;;;4990377;28;20046;-72
2022/11/02 12:20:13;;;;;;;4.43;1.30;;;;;;;;;;4973998;28;20485;-73
2022/11/02 12:22:54;;;;;;;3.70;1.20;;;;;;;;;;4970878;28;20076;-72
2022/11/02 12:25:31;;;;;;;2.63;1.10;;;;;;;;;;4970352;28;20522;-72
2022/11/02 12:27:57;;;;;;;4.10;1.00;;;;;;;;;;4971083;28;20039;-72
2022/11/02 12:30:26;;;;;;;3.08;0.90;;;;;;;;;;4970612;28;20038;-72
2022/11/02 12:33:10;;;;;;;2.28;1.00;;;;;;;;;;4954736;28;20035;-72
2022/11/02 12:35:53;;;;;;;2.83;1.00;;;;;;;;;;4970425;28;20033;-72
2022/11/02 12:38:38;;;;;;;3.47;1.00;;;;;;;;;;5025861;28;20514;-72
2022/11/02 12:41:10;;;;;;;4.78;0.88;;;;;;;;;;5051327;28;20024;-72
2022/11/02 12:43:46;;;;;;;2.47;1.10;;;;;;;;;;5051554;28;20021;-72
2022/11/02 12:46:20;;;;;;;4.53;1.20;;;;;;;;;;5069824;28;20482;-72
2022/11/02 12:49:05;;;;;;;5.20;1.00;;;;;;;;;;5055178;28;20027;-72
2022/11/02 12:51:50;;;;;;;3.13;1.10;;;;;;;;;;5055310;28;20017;-72
2022/11/02 12:54:20;;;;;;;2.65;1.10;;;;;;;;;;5054729;28;20025;-72
2022/11/02 12:56:49;;;;;;;22.77;2.17;;;;;;;;;;5054895;28;20482;-70
2022/11/02 12:59:27;;;;;;;2.78;0.95;;;;;;;;;;5055173;28;20045;-72
2022/11/02 13:02:14;;;;;;;3.40;1.08;;;;;;;;;;5056311;28;20046;-72
2022/11/02 13:05:04;;;;;;;2.08;1.00;;;;;;;;;;5071000;28;20047;-72
2022/11/02 13:07:42;;;;;;;2.30;1.07;;;;;;;;;;5030043;28;20025;-72
2022/11/02 13:10:27;;;;;;;1.67;0.82;;;;;;;;;;5030574;28;20272;-72
2022/11/02 13:12:56;;;;;;;2.50;0.90;;;;;;;;;;5030982;28;20517;-72
2022/11/02 13:15:24;;;;;;;3.00;1.00;;;;;;;;;;5031075;28;20057;-72
2022/11/02 13:17:57;;;;;;;2.33;0.77;;;;;;;;;;5030958;28;20156;-72
2022/11/02 13:20:25;;;;;;;2.78;1.10;;;;;;;;;;5030924;28;20032;-72
2022/11/02 13:22:57;;;;;;;1.85;1.00;;;;;;;;;;5031675;28;20022;-72
2022/11/02 13:25:34;;;;;;;2.63;0.90;;;;;;;;;;5031609;28;20086;-72
2022/11/02 13:28:04;;;;;;;1.70;0.90;;;;;;;;;;5026154;28;20025;-72
2022/11/02 13:30:31;;;;;;;3.58;1.17;;;;;;;;;;5026301;28;20078;-72
2022/11/02 13:33:15;;;;;;;2.70;0.90;;;;;;;;;;5031714;28;20510;-72
2022/11/02 13:35:42;;;;;;;1.73;0.85;;;;;;;;;;5031770;28;20022;-72
2022/11/02 13:38:08;;;;;;;2.72;0.90;;;;;;;;;;5031643;28;20517;-72
2022/11/02 13:40:49;;;;;;;1.92;0.93;;;;;;;;;;5032102;28;20040;-72
2022/11/02 13:43:18;;;;;;;1.25;0.80;;;;;;;;;;5032049;28;20067;-72
2022/11/02 13:45:53;;;;;;;2.63;0.80;;;;;;;;;;5070754;28;20054;-72
2022/11/02 13:48:35;;;;;;;1.80;0.80;;;;;;;;;;5072969;28;20375;-72
2022/11/02 13:51:05;;;;;;;4.22;0.90;;;;;;;;;;5070824;28;20050;-71
2022/11/02 13:53:35;;;;;;;2.47;0.90;;;;;;;;;;5073419;28;20025;-72
2022/11/02 13:56:08;;;;;;;3.45;1.00;;;;;;;;;;5073622;28;20020;-72
2022/11/02 13:58:36;;;;;;;3.40;0.82;;;;;;;;;;5073365;28;20038;-72
2022/11/02 14:01:04;;;;;;;2.97;0.85;;;;;;;;;;5073310;28;20404;-71
2022/11/02 14:03:30;;;;;;;1.88;0.90;;;;;;;;;;5073638;28;20055;-72
2022/11/02 14:05:59;;;;;;;1.90;0.90;;;;;;;;;;5073674;28;20039;-72
2022/11/02 14:08:30;;;;;;;2.15;0.98;;;;;;;;;;5072295;28;20035;-72
2022/11/02 14:11:05;;;;;;;9.68;1.20;;;;;;;;;;5073645;28;20024;-72
2022/11/02 14:13:53;;;;;;;0.95;0.63;;;;;;;;;;5073275;28;20541;-71
2022/11/02 14:16:38;;;;;;;3.05;0.70;;;;;;;;;;5073399;28;20037;-71
2022/11/02 14:19:19;;;;;;;2.25;0.90;;;;;;;;;;5072963;28;20046;-71
2022/11/02 14:21:49;;;;;;;1.95;0.80;;;;;;;;;;5073270;28;20039;-70
2022/11/02 14:24:41;;;;;;;1.73;0.70;;;;;;;;;;5073533;28;20025;-70
2022/11/02 14:27:18;;;;;;;1.38;0.80;;;;;;;;;;5031091;28;20044;-70
2022/11/02 14:29:44;;;;;;;2.20;0.70;;;;;;;;;;5030965;28;20613;-70
2022/11/02 14:32:16;;;;;;;2.25;0.80;;;;;;;;;;5031045;28;20044;-71
2022/11/02 14:34:54;;;;;;;2.05;0.80;;;;;;;;;;5031296;28;20037;-70
2022/11/02 14:37:23;;;;;;;2.08;0.70;;;;;;;;;;5030678;28;20087;-68
2022/11/02 14:39:58;;;;;;;3.28;0.88;;;;;;;;;;5030956;28;20040;-70
2022/11/02 14:42:24;;;;;;;1.55;0.80;;;;;;;;;;5030728;28;20042;-70
2022/11/02 14:45:09;;;;;;;2.38;0.70;;;;;;;;;;5031035;28;20025;-71
2022/11/02 14:47:36;;;;;;;2.40;0.80;;;;;;;;;;5030815;28;20021;-70
2022/11/02 14:50:03;;;;;;;1.70;0.73;;;;;;;;;;5030558;28;20037;-70
2022/11/02 14:52:33;;;;;;;2.67;0.85;;;;;;;;;;5030650;28;20529;-70
2022/11/02 14:55:01;;;;;;;2.60;0.73;;;;;;;;;;5030439;28;20527;-70
2022/11/02 14:57:30;;;;;;;1.35;0.60;;;;;;;;;;5030584;28;20057;-70
2022/11/02 14:59:58;;;;;;;0.88;0.60;;;;;;;;;;5031001;28;20022;-70
2022/11/02 15:02:27;;;;;;;6.40;1.10;;;;;;;;;;5030463;28;20083;-70
2022/11/02 15:04:58;;;;;;;1.60;0.70;;;;;;;;;;5050108;28;20063;-70
2022/11/02 15:07:39;;;;;;;0.60;0.60;;;;;;;;;;5052254;28;20482;-70
2022/11/02 15:10:28;;;;;;;3.60;0.90;;;;;;;;;;5060147;28;20025;-71
2022/11/02 15:13:15;;;;;;;0.70;0.70;;;;;;;;;;5072471;28;20028;-71
2022/11/02 15:15:41;;;;;;;5.60;0.68;;;;;;;;;;5072310;28;20055;-71
2022/11/02 15:18:21;;;;;;;1.92;0.70;;;;;;;;;;5072204;28;20149;-70
2022/11/02 15:21:08;;;;;;;1.15;0.65;;;;;;;;;;5051998;28;20021;-71